Time;durP1;ratioP1;P1;durP2;ratioP2;P2;SDS_P1;SDS_P2;PMS_P1;PMS_P2;Temp;Humidity;BMP_temperature;BMP_pressure;BME280_temperature;BME280_humidity;BME280_pressure;Samples;Min_cycle;Max_cycle;Signal;HPM_P1;HPM_P2
2023/04/13 00:01:21;;;;;;;;;;;;;;;14.20;66.03;99601.22;4908238;29;19914;-75
2023/04/13 00:04:13;;;;;;;;;;;;;;;14.22;65.91;99596.13;4913711;29;19915;-75
2023/04/13 00:07:05;;;;;;;;;;;;;;;14.25;65.40;99589.16;4922324;29;19923;-76
2023/04/13 00:09:57;;;;;;;;;;;;;;;14.27;65.05;99586.88;4916702;29;19919;-76
2023/04/13 00:12:49;;;;;;;;;;;;;;;14.23;65.31;99575.84;4917179;29;20307;-76
2023/04/13 00:15:42;;;;;;;;;;;;;;;14.31;64.82;99580.28;4921764;29;20013;-75
2023/04/13 00:18:34;;;;;;;;;;;;;;;14.35;64.34;99570.19;4918826;29;20527;-74
2023/04/13 00:21:26;;;;;;;;;;;;;;;14.38;63.85;99560.47;4914796;29;19919;-75
2023/04/13 00:24:18;;;;;;;;;;;;;;;14.43;63.79;99557.41;4914830;29;20391;-75
2023/04/13 00:27:10;;;;;;;;;;;;;;;14.48;63.59;99548.91;4918471;29;19915;-74
2023/04/13 00:29:59;;;;;;;;;;;;;;;14.36;63.66;99547.19;4914295;29;19938;-74
2023/04/13 00:32:51;;;;;;;;;;;;;;;14.41;63.22;99544.13;4919364;29;19927;-74
2023/04/13 00:35:43;;;;;;;;;;;;;;;14.34;62.86;99538.53;4934388;23;20303;-78
2023/04/13 00:38:35;;;;;;;;;;;;;;;14.31;62.53;99539.28;4915457;29;19918;-76
2023/04/13 00:41:27;;;;;;;;;;;;;;;14.18;62.41;99526.16;4925022;29;19914;-78
2023/04/13 00:44:22;;;;;;;;;;;;;;;14.12;62.39;99525.69;4917825;29;19918;-77
2023/04/13 00:47:14;;;;;;;;;;;;;;;14.18;62.33;99523.41;4917698;29;19919;-77
2023/04/13 00:50:07;;;;;;;;;;;;;;;14.20;61.29;99515.66;4927417;29;19919;-77
2023/04/13 00:52:55;;;;;;;;;;;;;;;14.19;61.72;99506.66;4910259;29;19919;-77
2023/04/13 00:55:47;;;;;;;;;;;;;;;14.28;61.26;99507.16;4917371;29;19915;-78
2023/04/13 00:58:37;;;;;;;;;;;;;;;14.17;61.82;99506.22;4919462;29;19919;-78
2023/04/13 01:01:29;;;;;;;;;;;;;;;14.18;61.60;99513.28;4912239;29;19919;-78
2023/04/13 01:04:21;;;;;;;;;;;;;;;14.29;61.49;99516.97;4917052;29;19914;-77
2023/04/13 01:07:14;;;;;;;;;;;;;;;14.23;61.97;99520.38;4917866;29;20364;-76
2023/04/13 01:10:10;;;;;;;;;;;;;;;14.10;62.72;99506.94;4916372;29;19919;-77
2023/04/13 01:13:11;;;;;;;;;;;;;;;14.05;63.89;99511.91;4923735;29;19915;-78
2023/04/13 01:16:09;;;;;;;;;;;;;;;14.01;64.42;99508.34;4911271;29;19916;-76
2023/04/13 01:19:03;;;;;;;;;;;;;;;14.02;63.98;99501.69;4914406;29;20310;-77
2023/04/13 01:21:55;;;;;;;;;;;;;;;14.03;63.92;99506.03;4919673;29;19915;-76
2023/04/13 01:24:57;;;;;;;;;;;;;;;14.16;63.83;99507.41;4920366;29;19914;-77
2023/04/13 01:27:50;;;;;;;;;;;;;;;14.06;64.61;99500.63;4912745;29;19916;-77
2023/04/13 01:30:42;;;;;;;;;;;;;;;13.98;64.31;99504.38;4913514;29;19923;-77
2023/04/13 01:33:34;;;;;;;;;;;;;;;14.03;64.22;99495.09;4919372;29;19914;-77
2023/04/13 01:36:26;;;;;;;;;;;;;;;14.02;63.77;99499.75;4915983;29;19915;-76
2023/04/13 01:39:21;;;;;;;;;;;;;;;13.94;64.70;99495.34;4920492;29;19915;-77
2023/04/13 01:42:19;;;;;;;;;;;;;;;13.93;65.35;99501.97;4921820;29;19918;-77
2023/04/13 01:45:15;;;;;;;;;;;;;;;13.88;65.60;99501.50;4919398;29;19915;-76
2023/04/13 01:48:15;;;;;;;;;;;;;;;13.84;66.36;99522.50;4917249;29;19915;-77
2023/04/13 01:51:33;;;;;;;;;;;;;;;13.76;66.20;99520.84;4904264;29;19928;-78
2023/04/13 01:54:25;;;;;;;;;;;;;;;13.77;66.91;99508.72;4924632;29;19915;-79
2023/04/13 01:57:17;;;;;;;;;;;;;;;13.77;67.38;99489.59;4912977;29;19915;-77
2023/04/13 02:00:09;;;;;;;;;;;;;;;13.84;66.48;99495.19;4915135;29;19957;-77
2023/04/13 02:03:02;;;;;;;;;;;;;;;13.81;67.08;99501.41;4900043;29;19915;-79
2023/04/13 02:05:54;;;;;;;;;;;;;;;13.78;66.39;99500.16;4915749;29;19915;-78
2023/04/13 02:08:43;;;;;;;;;;;;;;;13.87;66.28;99494.44;4922243;29;19915;-78
2023/04/13 02:11:39;;;;;;;;;;;;;;;13.86;67.25;99482.75;4917522;29;19919;-77
2023/04/13 02:14:31;;;;;;;;;;;;;;;13.79;66.66;99479.09;4917442;29;20387;-77
2023/04/13 02:17:23;;;;;;;;;;;;;;;13.73;67.80;99480.56;4918721;29;19915;-78
2023/04/13 02:20:15;;;;;;;;;;;;;;;13.73;67.51;99484.09;4916878;29;19919;-78
2023/04/13 02:23:07;;;;;;;;;;;;;;;13.79;67.32;99487.31;4919652;29;19914;-77
2023/04/13 02:25:59;;;;;;;;;;;;;;;13.71;66.22;99489.16;4921232;29;19918;-78
2023/04/13 02:28:52;;;;;;;;;;;;;;;13.63;65.66;99488.22;4920791;29;19919;-77
2023/04/13 02:31:44;;;;;;;;;;;;;;;13.64;64.49;99492.53;4923611;29;19919;-78
2023/04/13 02:34:36;;;;;;;;;;;;;;;13.64;62.96;99484.34;4935306;29;19915;-77
2023/04/13 02:37:28;;;;;;;;;;;;;;;13.72;63.07;99479.78;4919642;29;19914;-79
2023/04/13 02:40:20;;;;;;;;;;;;;;;13.67;64.43;99478.13;4922989;29;19918;-78
2023/04/13 02:43:12;;;;;;;;;;;;;;;13.71;63.63;99492.63;4924561;29;19914;-78
2023/04/13 02:46:03;;;;;;;;;;;;;;;13.74;64.04;99487.63;4923764;29;19915;-77
2023/04/13 02:48:58;;;;;;;;;;;;;;;13.80;63.85;99480.69;4922520;29;19915;-77
2023/04/13 02:51:50;;;;;;;;;;;;;;;13.79;65.19;99479.09;4919783;29;19922;-78
2023/04/13 02:54:45;;;;;;;;;;;;;;;13.75;65.97;99473.59;4930398;29;19914;-78
2023/04/13 02:57:35;;;;;;;;;;;;;;;13.65;66.55;99461.34;4920765;29;19915;-78
2023/04/13 03:00:27;;;;;;;;;;;;;;;13.59;67.03;99460.06;4918845;29;19918;-77
2023/04/13 03:03:21;;;;;;;;;;;;;;;13.59;67.04;99456.56;4921929;29;19915;-77
2023/04/13 03:06:11;;;;;;;;;;;;;;;13.59;66.45;99456.56;4918878;29;20292;-76
2023/04/13 03:09:14;;;;;;;;;;;;;;;13.53;67.36;99449.81;4938016;29;19914;-77
2023/04/13 03:12:09;;;;;;;;;;;;;;;13.55;68.17;99458.44;4939308;29;20374;-77
2023/04/13 03:15:01;;;;;;;;;;;;;;;13.56;68.56;99468.97;4928114;29;19915;-77
2023/04/13 03:17:51;;;;;;;;;;;;;;;13.61;68.18;99468.66;4921716;29;19915;-77
2023/04/13 03:20:46;;;;;;;;;;;;;;;13.51;69.09;99460.34;4919453;29;20295;-77
2023/04/13 03:23:39;;;;;;;;;;;;;;;13.60;68.75;99452.66;4922864;29;19915;-77
2023/04/13 03:26:32;;;;;;;;;;;;;;;13.68;68.31;99449.69;4920934;29;19914;-77
2023/04/13 03:29:26;;;;;;;;;;;;;;;13.80;67.95;99453.38;4916190;29;20379;-77
2023/04/13 03:32:18;;;;;;;;;;;;;;;13.77;68.01;99454.09;4922195;29;20290;-77
2023/04/13 03:35:11;;;;;;;;;;;;;;;13.68;68.45;99441.47;4916369;29;19915;-78
2023/04/13 03:38:03;;;;;;;;;;;;;;;13.61;69.00;99438.63;4917362;29;19915;-77
2023/04/13 03:40:57;;;;;;;;;;;;;;;13.63;69.27;99433.59;4920608;29;19914;-77
2023/04/13 03:43:47;;;;;;;;;;;;;;;13.62;69.42;99432.00;4918932;29;19927;-77
2023/04/13 03:46:39;;;;;;;;;;;;;;;13.53;69.68;99417.81;4917641;29;19918;-78
2023/04/13 03:49:41;;;;;;;;;;;;;;;13.52;70.24;99427.16;4921873;29;19915;-77
2023/04/13 03:52:33;;;;;;;;;;;;;;;13.51;70.23;99414.66;4917491;29;19923;-76
2023/04/13 03:55:23;;;;;;;;;;;;;;;13.50;70.15;99417.78;4921707;29;19915;-76
2023/04/13 03:58:16;;;;;;;;;;;;;;;13.52;70.31;99416.25;4917838;29;19915;-76
2023/04/13 04:01:07;;;;;;;;;;;;;;;13.55;70.26;99421.00;4935122;29;19915;-76
2023/04/13 04:04:08;;;;;;;;;;;;;;;13.54;70.62;99424.09;4910824;29;19915;-77
2023/04/13 04:06:59;;;;;;;;;;;;;;;13.55;70.38;99425.66;4926171;29;19919;-77
2023/04/13 04:09:51;;;;;;;;;;;;;;;13.72;69.97;99425.13;4931041;29;20291;-77
2023/04/13 04:12:45;;;;;;;;;;;;;;;13.70;70.35;99425.53;4918328;29;19918;-77
2023/04/13 04:15:39;;;;;;;;;;;;;;;13.74;70.24;99424.78;4919235;29;20379;-77
2023/04/13 04:18:31;;;;;;;;;;;;;;;13.68;70.76;99421.56;4922472;29;19915;-78
2023/04/13 04:21:20;;;;;;;;;;;;;;;13.67;70.69;99430.91;4919471;29;19915;-78
2023/04/13 04:24:10;;;;;;;;;;;;;;;13.50;68.19;99432.22;4919934;29;19915;-77
2023/04/13 04:27:02;;;;;;;;;;;;;;;13.37;67.58;99435.50;4918789;29;19915;-76
2023/04/13 04:29:54;;;;;;;;;;;;;;;13.05;68.36;99438.47;4922552;29;20400;-77
2023/04/13 04:32:51;;;;;;;;;;;;;;;13.18;67.96;99433.63;4920620;29;20311;-77
2023/04/13 04:35:48;;;;;;;;;;;;;;;12.82;68.15;99438.41;4917502;29;19915;-77
2023/04/13 04:38:38;;;;;;;;;;;;;;;12.73;69.21;99428.88;4921226;29;20398;-77
2023/04/13 04:41:30;;;;;;;;;;;;;;;12.77;70.07;99429.72;4918218;29;19919;-76
2023/04/13 04:44:24;;;;;;;;;;;;;;;12.85;69.85;99421.31;4909043;29;20392;-77
2023/04/13 04:47:17;;;;;;;;;;;;;;;12.82;70.88;99411.13;4907508;29;19915;-77
2023/04/13 04:50:25;;;;;;;;;;;;;;;12.69;71.06;99417.91;4924266;29;19919;-78
2023/04/13 04:53:21;;;;;;;;;;;;;;;12.72;71.79;99422.63;4915917;29;20375;-77
2023/04/13 04:56:12;;;;;;;;;;;;;;;12.68;71.82;99419.06;4909010;29;19915;-77
2023/04/13 04:59:06;;;;;;;;;;;;;;;12.65;71.59;99424.41;4913922;29;19915;-78
2023/04/13 05:02:15;;;;;;;;;;;;;;;12.82;71.67;99432.94;4915833;29;20302;-76
2023/04/13 05:05:07;;;;;;;;;;;;;;;12.85;69.90;99432.22;4911426;29;19915;-77
2023/04/13 05:08:00;;;;;;;;;;;;;;;12.91;69.86;99434.66;4917862;29;19918;-77
2023/04/13 05:10:52;;;;;;;;;;;;;;;12.89;69.89;99431.50;4914802;29;19922;-77
2023/04/13 05:13:44;;;;;;;;;;;;;;;12.86;70.14;99427.56;4911891;29;19915;-76
2023/04/13 05:16:41;;;;;;;;;;;;;;;12.96;69.39;99428.91;4913871;29;19922;-75
2023/04/13 05:19:38;;;;;;;;;;;;;;;12.90;69.13;99422.94;4916705;29;19915;-76
2023/04/13 05:22:34;;;;;;;;;;;;;;;12.66;69.00;99421.34;4919755;29;19915;-76
2023/04/13 05:25:27;;;;;;;;;;;;;;;12.62;69.76;99411.50;4917597;29;19915;-75
2023/04/13 05:28:20;;;;;;;;;;;;;;;12.68;69.55;99410.06;4921752;29;19919;-77
2023/04/13 05:31:13;;;;;;;;;;;;;;;12.68;69.85;99410.88;4918365;29;19919;-77
2023/04/13 05:34:06;;;;;;;;;;;;;;;12.67;69.75;99405.75;4917829;29;19915;-77
2023/04/13 05:36:56;;;;;;;;;;;;;;;12.53;70.39;99417.19;4922343;29;19914;-77
2023/04/13 05:39:46;;;;;;;;;;;;;;;12.51;70.56;99410.50;4924063;29;19915;-77
2023/04/13 05:42:38;;;;;;;;;;;;;;;12.42;70.81;99416.19;4912808;29;19915;-76
2023/04/13 05:45:30;;;;;;;;;;;;;;;12.44;71.19;99420.13;4915622;29;20315;-75
2023/04/13 05:48:25;;;;;;;;;;;;;;;12.60;70.79;99425.50;4916455;29;19915;-77
2023/04/13 05:51:16;;;;;;;;;;;;;;;12.42;71.15;99435.28;4918541;29;19923;-76
2023/04/13 05:54:08;;;;;;;;;;;;;;;12.45;71.17;99429.09;4918758;29;19915;-76
2023/04/13 05:57:00;;;;;;;;;;;;;;;12.42;70.90;99440.72;4917755;29;20131;-76
2023/04/13 05:59:52;;;;;;;;;;;;;;;12.60;70.40;99435.63;4919702;29;19915;-76
2023/04/13 06:02:46;;;;;;;;;;;;;;;12.59;70.06;99443.03;4918787;29;20299;-76
2023/04/13 06:05:38;;;;;;;;;;;;;;;12.61;69.79;99438.00;4915347;29;19915;-77
2023/04/13 06:08:31;;;;;;;;;;;;;;;12.76;69.52;99445.31;4914885;29;20125;-77
2023/04/13 06:11:23;;;;;;;;;;;;;;;12.78;69.05;99443.00;4914881;29;19919;-77
2023/04/13 06:14:15;;;;;;;;;;;;;;;12.80;69.34;99439.91;4912172;29;19914;-77
2023/04/13 06:17:04;;;;;;;;;;;;;;;12.40;72.52;99443.00;4919917;29;20291;-76
2023/04/13 06:19:56;;;;;;;;;;;;;;;12.32;72.75;99436.63;4916044;29;19915;-74
2023/04/13 06:22:48;;;;;;;;;;;;;;;12.25;73.05;99427.50;4915788;29;20319;-75
2023/04/13 06:25:41;;;;;;;;;;;;;;;12.54;71.44;99413.34;4923358;29;20387;-76
2023/04/13 06:28:30;;;;;;;;;;;;;;;13.14;69.46;99416.41;4914196;29;19915;-76
2023/04/13 06:31:22;;;;;;;;;;;;;;;13.84;67.62;99410.47;4919382;29;19919;-78
2023/04/13 06:34:14;;;;;;;;;;;;;;;14.25;66.27;99409.47;4896399;29;19915;-77
2023/04/13 06:37:06;;;;;;;;;;;;;;;14.48;65.24;99401.97;4912933;29;19915;-77
2023/04/13 06:40:12;;;;;;;;;;;;;;;14.29;65.92;99409.53;4918020;29;19918;-77
2023/04/13 06:43:06;;;;;;;;;;;;;;;14.24;66.16;99407.13;4924478;29;19915;-76
2023/04/13 06:46:00;;;;;;;;;;;;;;;14.52;66.04;99402.03;4913683;29;20388;-78
2023/04/13 06:48:53;;;;;;;;;;;;;;;14.43;65.51;99404.25;4911108;29;19915;-78
2023/04/13 06:51:47;;;;;;;;;;;;;;;14.40;65.95;99403.06;4905034;29;20386;-77
2023/04/13 06:54:39;;;;;;;;;;;;;;;14.41;65.68;99393.69;4910401;29;19919;-79
2023/04/13 06:57:39;;;;;;;;;;;;;;;14.21;66.50;99386.00;4925252;29;19916;-78
2023/04/13 07:00:31;;;;;;;;;;;;;;;14.16;66.73;99381.66;4919659;29;19915;-79
2023/04/13 07:03:23;;;;;;;;;;;;;;;14.22;66.84;99384.84;4916370;29;19919;-78
2023/04/13 07:06:15;;;;;;;;;;;;;;;14.42;66.26;99383.56;4914971;29;19915;-78
2023/04/13 07:09:04;;;;;;;;;;;;;;;15.75;62.86;99390.63;4916109;29;19915;-78
2023/04/13 07:11:57;;;;;;;;;;;;;;;16.00;61.69;99385.31;4922513;29;20302;-77
2023/04/13 07:14:49;;;;;;;;;;;;;;;15.98;61.66;99371.19;4983303;23;19930;-73
2023/04/13 07:17:42;;;;;;;;;;;;;;;15.98;60.98;99366.50;4943460;28;20309;-74
2023/04/13 07:20:33;;;;;;;;;;;;;;;15.53;61.42;99373.28;4937773;29;19915;-74
2023/04/13 07:23:25;;;;;;;;;;;;;;;15.46;62.06;99366.91;4941927;29;19915;-74
2023/04/13 07:26:17;;;;;;;;;;;;;;;15.32;62.35;99376.59;4923815;29;20290;-74
2023/04/13 07:29:12;;;;;;;;;;;;;;;15.20;62.26;99362.41;4933172;29;20556;-74
2023/04/13 07:32:05;;;;;;;;;;;;;;;15.65;60.88;99363.94;4940554;28;19919;-74
2023/04/13 07:35:00;;;;;;;;;;;;;;;15.64;60.96;99367.88;4918859;29;19915;-74
2023/04/13 07:37:52;;;;;;;;;;;;;;;15.68;60.07;99353.03;4935466;29;20310;-74
2023/04/13 07:40:44;;;;;;;;;;;;;;;15.73;60.32;99349.91;4932943;29;19915;-74
2023/04/13 07:43:36;;;;;;;;;;;;;;;15.72;59.94;99348.34;4931275;29;19915;-74
2023/04/13 07:46:30;;;;;;;;;;;;;;;15.66;61.28;99349.06;4919761;29;19915;-74
2023/04/13 07:49:22;;;;;;;;;;;;;;;15.45;61.56;99355.16;4923168;29;19915;-74
2023/04/13 07:52:15;;;;;;;;;;;;;;;15.45;61.39;99355.16;4916741;29;19920;-73
2023/04/13 07:55:08;;;;;;;;;;;;;;;15.39;61.10;99348.47;4908247;29;19915;-74
2023/04/13 07:58:02;;;;;;;;;;;;;;;15.13;61.50;99352.22;4911217;29;20414;-75
2023/04/13 08:00:52;;;;;;;;;;;;;;;14.89;62.80;99353.53;4917863;29;20564;-74
2023/04/13 08:03:44;;;;;;;;;;;;;;;14.86;63.33;99348.84;4932746;29;19914;-74
2023/04/13 08:06:39;;;;;;;;;;;;;;;14.85;62.95;99346.47;4940413;29;19918;-74
2023/04/13 08:09:32;;;;;;;;;;;;;;;14.92;62.37;99341.84;4933801;29;20394;-75
2023/04/13 08:12:24;;;;;;;;;;;;;;;14.36;64.13;99344.81;4912396;29;20391;-75
2023/04/13 08:15:16;;;;;;;;;;;;;;;14.20;65.21;99351.59;4910044;29;19915;-75
2023/04/13 08:18:08;;;;;;;;;;;;;;;14.02;66.08;99357.63;4907678;29;19915;-75
2023/04/13 08:21:00;;;;;;;;;;;;;;;13.97;66.31;99354.44;4927653;29;19915;-75
2023/04/13 08:23:52;;;;;;;;;;;;;;;13.87;66.90;99355.88;4914853;29;19923;-75
2023/04/13 08:26:44;;;;;;;;;;;;;;;13.75;69.26;99363.50;4909047;29;19914;-75
2023/04/13 08:29:36;;;;;;;;;;;;;;;13.69;71.09;99366.56;4918791;29;19915;-75
2023/04/13 08:32:28;;;;;;;;;;;;;;;13.66;73.41;99356.34;4933225;29;19919;-75
2023/04/13 08:35:20;;;;;;;;;;;;;;;13.33;73.53;99359.00;4930997;29;20391;-75
2023/04/13 08:38:11;;;;;;;;;;;;;;;13.05;77.90;99342.16;4931357;29;19915;-74
2023/04/13 08:41:07;;;;;;;;;;;;;;;13.20;75.86;99350.22;4913047;29;19915;-75
2023/04/13 08:44:00;;;;;;;;;;;;;;;13.16;75.94;99346.63;4911334;29;20306;-75
2023/04/13 08:46:53;;;;;;;;;;;;;;;13.22;75.80;99342.44;4915033;29;19915;-75
2023/04/13 08:49:48;;;;;;;;;;;;;;;13.25;75.11;99340.94;4922871;29;19914;-75
2023/04/13 08:52:38;;;;;;;;;;;;;;;13.23;74.84;99337.78;4934512;29;19919;-75
2023/04/13 08:55:29;;;;;;;;;;;;;;;13.07;74.27;99331.63;4919959;29;19918;-74
2023/04/13 08:58:22;;;;;;;;;;;;;;;13.15;75.00;99328.69;4933075;29;19922;-75
2023/04/13 09:01:17;;;;;;;;;;;;;;;13.01;74.97;99341.28;4920016;29;19915;-75
2023/04/13 09:04:15;;;;;;;;;;;;;;;13.07;74.80;99334.38;4919011;29;19952;-75
2023/04/13 09:07:07;;;;;;;;;;;;;;;13.07;73.94;99328.91;4929141;29;19919;-75
2023/04/13 09:10:01;;;;;;;;;;;;;;;12.92;74.03;99321.63;4931852;28;19914;-74
2023/04/13 09:12:53;;;;;;;;;;;;;;;12.90;73.97;99323.97;4916931;29;19919;-74
2023/04/13 09:15:46;;;;;;;;;;;;;;;12.94;73.83;99319.34;4917816;29;19915;-75
2023/04/13 09:18:57;;;;;;;;;;;;;;;13.00;73.60;99310.50;4931286;29;19915;-75
2023/04/13 09:21:47;;;;;;;;;;;;;;;13.06;73.79;99313.69;4929485;29;19923;-75
2023/04/13 09:24:44;;;;;;;;;;;;;;;13.09;73.90;99315.69;4921454;29;19914;-75
2023/04/13 09:27:36;;;;;;;;;;;;;;;13.11;74.02;99318.81;4917539;29;19915;-75
2023/04/13 09:30:28;;;;;;;;;;;;;;;13.07;74.42;99335.16;4920611;29;19915;-75
2023/04/13 09:33:20;;;;;;;;;;;;;;;12.97;74.30;99338.50;4924163;29;19929;-75
2023/04/13 09:36:12;;;;;;;;;;;;;;;12.99;74.15;99338.94;4916382;29;19918;-75
2023/04/13 09:39:04;;;;;;;;;;;;;;;13.02;73.54;99332.72;4919979;29;19914;-75
2023/04/13 09:41:56;;;;;;;;;;;;;;;13.08;73.51;99341.41;4918443;29;19915;-75
2023/04/13 09:44:56;;;;;;;;;;;;;;;13.13;73.31;99341.91;4919952;29;19915;-75
2023/04/13 09:47:43;;;;;;;;;;;;;;;13.28;73.02;99342.94;4919112;29;20295;-75
2023/04/13 09:50:35;;;;;;;;;;;;;;;13.39;73.17;99349.34;4929256;29;19915;-74
2023/04/13 09:53:27;;;;;;;;;;;;;;;13.55;73.45;99343.72;4914339;29;19919;-75
2023/04/13 09:56:16;;;;;;;;;;;;;;;13.60;73.49;99341.47;4916897;29;19915;-75
2023/04/13 09:59:06;;;;;;;;;;;;;;;13.58;72.41;99341.03;4897734;29;19915;-74
2023/04/13 10:01:58;;;;;;;;;;;;;;;13.61;71.27;99337.56;4900550;29;19915;-74
2023/04/13 10:04:50;;;;;;;;;;;;;;;13.65;71.48;99332.97;4920144;29;20315;-74
2023/04/13 10:07:43;;;;;;;;;;;;;;;13.51;71.69;99316.34;4919060;29;19918;-73
2023/04/13 10:10:35;;;;;;;;;;;;;;;13.56;71.29;99318.00;4917876;29;19915;-74
2023/04/13 10:13:29;;;;;;;;;;;;;;;13.48;71.24;99317.09;4909170;29;19920;-75
2023/04/13 10:16:37;;;;;;;;;;;;;;;13.57;71.43;99298.50;4916660;29;20299;-75
2023/04/13 10:19:30;;;;;;;;;;;;;;;13.65;71.50;99293.91;4907673;29;19915;-75
2023/04/13 10:22:22;;;;;;;;;;;;;;;13.68;71.73;99288.50;4920475;29;19915;-75
2023/04/13 10:25:17;;;;;;;;;;;;;;;13.81;72.42;99269.94;4918241;29;19915;-75
2023/04/13 10:28:09;;;;;;;;;;;;;;;13.87;70.69;99267.63;4916968;29;19915;-75
2023/04/13 10:31:01;;;;;;;;;;;;;;;13.93;70.31;99268.88;4919183;29;19915;-75
2023/04/13 10:33:53;;;;;;;;;;;;;;;13.91;69.80;99269.28;4904182;29;19920;-75
2023/04/13 10:36:43;;;;;;;;;;;;;;;14.01;68.95;99265.09;4911016;29;19914;-75
2023/04/13 10:39:35;;;;;;;;;;;;;;;14.00;67.98;99268.97;4916138;29;19915;-75
2023/04/13 10:42:25;;;;;;;;;;;;;;;14.02;68.24;99259.22;4912989;29;19915;-75
2023/04/13 10:45:22;;;;;;;;;;;;;;;13.96;68.88;99252.53;4914337;29;19916;-75
2023/04/13 10:48:20;;;;;;;;;;;;;;;13.79;68.86;99241.41;4921155;29;20358;-75
2023/04/13 10:51:09;;;;;;;;;;;;;;;13.60;68.95;99237.69;4913637;29;20314;-75
2023/04/13 10:54:08;;;;;;;;;;;;;;;13.77;68.92;99235.50;4922961;29;19918;-75
2023/04/13 10:57:03;;;;;;;;;;;;;;;13.71;69.42;99246.00;4922237;29;19923;-75
2023/04/13 10:59:55;;;;;;;;;;;;;;;13.87;69.42;99252.03;4928672;29;19915;-75
2023/04/13 11:02:47;;;;;;;;;;;;;;;13.87;69.06;99284.81;4917179;29;19915;-75
2023/04/13 11:05:39;;;;;;;;;;;;;;;13.83;68.18;99300.38;4917474;29;19915;-74
2023/04/13 11:08:31;;;;;;;;;;;;;;;13.38;67.66;99304.06;4920004;29;19915;-75
2023/04/13 11:11:26;;;;;;;;;;;;;;;13.36;68.70;99297.41;4917535;29;19915;-75
2023/04/13 11:14:21;;;;;;;;;;;;;;;13.25;69.74;99294.53;4921869;29;20309;-76
2023/04/13 11:17:17;;;;;;;;;;;;;;;13.21;70.34;99288.22;4915712;29;19915;-75
2023/04/13 11:20:09;;;;;;;;;;;;;;;13.09;70.37;99282.94;4919429;29;19934;-75
2023/04/13 11:23:01;;;;;;;;;;;;;;;13.18;70.32;99273.38;4914814;29;19915;-75
2023/04/13 11:25:59;;;;;;;;;;;;;;;13.21;70.06;99278.09;4920512;29;19915;-75
2023/04/13 11:28:51;;;;;;;;;;;;;;;13.27;69.95;99275.81;4927676;29;20303;-75
2023/04/13 11:31:43;;;;;;;;;;;;;;;13.08;68.92;99286.81;4921575;29;20291;-75
2023/04/13 11:34:35;;;;;;;;;;;;;;;13.00;68.63;99285.94;4919441;29;19915;-75
2023/04/13 11:37:27;;;;;;;;;;;;;;;13.02;69.80;99277.38;4922278;29;19919;-75
2023/04/13 11:40:26;;;;;;;;;;;;;;;13.07;69.65;99275.13;4915528;29;19915;-75
2023/04/13 11:43:19;;;;;;;;;;;;;;;13.10;69.71;99273.59;4913254;29;19915;-75
2023/04/13 11:46:11;;;;;;;;;;;;;;;13.12;69.58;99271.31;4910498;29;19922;-75
2023/04/13 11:49:03;;;;;;;;;;;;;;;13.19;69.44;99265.97;4925094;29;19915;-76
2023/04/13 11:51:55;;;;;;;;;;;;;;;13.28;68.89;99266.50;4914845;29;19915;-75
2023/04/13 11:54:47;;;;;;;;;;;;;;;13.38;67.91;99265.84;4921136;29;19915;-75
2023/04/13 11:57:39;;;;;;;;;;;;;;;13.44;67.79;99248.00;4918677;29;19915;-76
2023/04/13 12:00:31;;;;;;;;;;;;;;;13.54;67.74;99255.53;4923502;29;19915;-75
2023/04/13 12:03:21;;;;;;;;;;;;;;;13.62;67.12;99249.00;4918000;29;19919;-75
2023/04/13 12:06:13;;;;;;;;;;;;;;;13.67;68.10;99237.75;4915853;29;19915;-76
2023/04/13 12:09:08;;;;;;;;;;;;;;;13.76;67.41;99240.22;4920821;29;19915;-75
2023/04/13 12:12:00;;;;;;;;;;;;;;;13.85;67.42;99232.50;4911367;29;20362;-74
2023/04/13 12:14:56;;;;;;;;;;;;;;;13.90;67.45;99234.13;4920719;29;19915;-76
2023/04/13 12:17:54;;;;;;;;;;;;;;;13.96;67.11;99235.34;4918625;29;19914;-75
2023/04/13 12:20:46;;;;;;;;;;;;;;;14.00;66.14;99233.44;4917287;29;20303;-74
2023/04/13 12:23:38;;;;;;;;;;;;;;;14.11;66.38;99240.59;4918464;29;19915;-75
2023/04/13 12:26:39;;;;;;;;;;;;;;;14.17;66.19;99232.06;4914428;29;19919;-75
2023/04/13 12:29:31;;;;;;;;;;;;;;;14.22;66.14;99237.19;4918583;29;19915;-74
2023/04/13 12:32:25;;;;;;;;;;;;;;;14.19;67.30;99213.31;4916273;29;19919;-74
2023/04/13 12:35:18;;;;;;;;;;;;;;;14.18;66.97;99209.00;4916701;29;19915;-74
2023/04/13 12:38:08;;;;;;;;;;;;;;;14.18;66.18;99189.88;4920159;29;19915;-73
2023/04/13 12:41:00;;;;;;;;;;;;;;;14.40;65.76;99194.41;4919251;29;19915;-74
2023/04/13 12:43:52;;;;;;;;;;;;;;;14.54;66.53;99192.59;4922327;29;19914;-73
2023/04/13 12:46:44;;;;;;;;;;;;;;;14.60;64.73;99189.50;4920257;29;19915;-74
2023/04/13 12:49:34;;;;;;;;;;;;;;;14.57;62.81;99195.75;4917877;29;19915;-73
2023/04/13 12:52:25;;;;;;;;;;;;;;;14.62;63.99;99198.91;4932047;29;19919;-73
2023/04/13 12:55:17;;;;;;;;;;;;;;;14.65;62.28;99205.56;4914729;29;19914;-74
2023/04/13 12:58:09;;;;;;;;;;;;;;;14.69;61.78;99212.63;4917740;29;19915;-73
2023/04/13 13:00:56;;;;;;;;;;;;;;;14.68;60.95;99207.56;4921440;29;20397;-73
2023/04/13 13:03:48;;;;;;;;;;;;;;;14.63;58.91;99197.72;4916103;29;19915;-73
2023/04/13 13:06:40;;;;;;;;;;;;;;;14.61;58.56;99186.41;4921919;29;19915;-73
2023/04/13 13:09:32;;;;;;;;;;;;;;;14.59;56.50;99183.25;4915965;29;20383;-73
2023/04/13 13:12:24;;;;;;;;;;;;;;;14.57;55.64;99174.63;4919278;29;19923;-74
2023/04/13 13:15:15;;;;;;;;;;;;;;;14.55;57.15;99172.28;4915121;29;19915;-72
2023/04/13 13:18:07;;;;;;;;;;;;;;;14.53;55.49;99157.41;4919849;29;19915;-74
2023/04/13 13:20:59;;;;;;;;;;;;;;;14.62;56.48;99160.59;4916877;29;19923;-73
2023/04/13 13:23:51;;;;;;;;;;;;;;;14.54;57.21;99150.75;4926416;29;19918;-73
2023/04/13 13:26:43;;;;;;;;;;;;;;;14.55;56.60;99153.13;4918628;29;19915;-73
2023/04/13 13:29:35;;;;;;;;;;;;;;;14.55;56.76;99138.66;4915957;29;19915;-73
2023/04/13 13:32:28;;;;;;;;;;;;;;;14.61;56.96;99130.88;4917141;29;19919;-73
2023/04/13 13:35:20;;;;;;;;;;;;;;;14.50;54.36;99148.00;4914538;29;19915;-73
2023/04/13 13:38:10;;;;;;;;;;;;;;;14.45;53.14;99145.63;4921228;29;20379;-72
2023/04/13 13:41:02;;;;;;;;;;;;;;;14.41;52.04;99139.34;4918475;29;20493;-73
2023/04/13 13:43:54;;;;;;;;;;;;;;;14.36;52.59;99131.50;4915499;29;19914;-72
2023/04/13 13:46:46;;;;;;;;;;;;;;;14.36;52.19;99123.28;4918040;29;19915;-73
2023/04/13 13:49:38;;;;;;;;;;;;;;;14.32;52.62;99121.66;4912465;29;19915;-72
2023/04/13 13:52:35;;;;;;;;;;;;;;;14.28;51.66;99118.09;4928766;28;19927;-73
2023/04/13 13:55:30;;;;;;;;;;;;;;;14.25;51.98;99111.44;4910585;29;19915;-72
2023/04/13 13:58:22;;;;;;;;;;;;;;;14.22;51.75;99114.16;4916356;29;19927;-75
2023/04/13 14:01:14;;;;;;;;;;;;;;;14.16;51.12;99116.47;4915666;29;19918;-75
2023/04/13 14:04:04;;;;;;;;;;;;;;;14.15;51.55;99123.09;4922988;29;19915;-74
2023/04/13 14:06:56;;;;;;;;;;;;;;;14.21;51.41;99123.53;4918217;29;20387;-74
2023/04/13 14:09:48;;;;;;;;;;;;;;;14.22;51.30;99125.88;4919735;29;19915;-75
2023/04/13 14:12:40;;;;;;;;;;;;;;;14.28;52.13;99113.41;4913654;29;19919;-75
2023/04/13 14:15:32;;;;;;;;;;;;;;;14.23;51.11;99104.78;4927294;29;19914;-75
2023/04/13 14:18:22;;;;;;;;;;;;;;;14.25;51.11;99111.44;4924629;29;19915;-74
2023/04/13 14:21:14;;;;;;;;;;;;;;;14.30;51.90;99113.03;4915336;29;19915;-74
2023/04/13 14:24:06;;;;;;;;;;;;;;;14.33;52.28;99106.81;4930262;29;19915;-75
2023/04/13 14:26:58;;;;;;;;;;;;;;;14.32;52.29;99091.59;4922000;29;19915;-74
2023/04/13 14:29:50;;;;;;;;;;;;;;;14.33;52.36;99088.47;4919737;29;19919;-74
2023/04/13 14:32:45;;;;;;;;;;;;;;;14.34;53.05;99100.97;4921513;29;19927;-74
2023/04/13 14:35:37;;;;;;;;;;;;;;;14.32;51.80;99103.31;4913564;29;20391;-76
2023/04/13 14:38:29;;;;;;;;;;;;;;;14.30;50.75;99105.63;4918321;29;19915;-74
2023/04/13 14:41:22;;;;;;;;;;;;;;;14.29;50.37;99109.53;4919908;29;20379;-76
2023/04/13 14:44:14;;;;;;;;;;;;;;;14.27;51.11;99084.53;4917793;29;19915;-75
2023/04/13 14:47:06;;;;;;;;;;;;;;;14.19;49.04;99082.09;4922135;29;19915;-75
2023/04/13 14:49:58;;;;;;;;;;;;;;;14.19;48.55;99063.75;4919835;29;19914;-76
2023/04/13 14:52:50;;;;;;;;;;;;;;;14.19;49.40;99077.41;4916089;29;20291;-75
2023/04/13 14:55:40;;;;;;;;;;;;;;;14.16;49.38;99055.53;4921772;29;19915;-75
2023/04/13 14:58:32;;;;;;;;;;;;;;;14.13;48.90;99046.91;4920784;29;19919;-75
2023/04/13 15:01:24;;;;;;;;;;;;;;;14.14;48.63;99039.50;4925433;29;19914;-75